createdAt,value
2023-02-22T00:25:52.595Z,20
2023-02-22T00:54:08.406Z,16
2023-02-22T01:22:32.996Z,16
2023-02-22T01:50:56.136Z,16
2023-02-22T02:19:45.565Z,17
2023-02-22T02:48:22.229Z,16
2023-02-22T03:17:16.213Z,16
2023-02-22T03:45:43.108Z,14
2023-02-22T04:14:30.711Z,14
2023-02-22T04:43:16.857Z,14
2023-02-22T05:11:41.888Z,28
2023-02-22T05:40:31.376Z,20
2023-02-22T06:09:25.272Z,17
2023-02-22T06:37:45.354Z,17
2023-02-22T07:06:30.127Z,16
2023-02-22T07:34:46.623Z,20
2023-02-22T08:03:32.275Z,22
2023-02-22T08:32:09.656Z,25
2023-02-22T09:00:46.972Z,25
2023-02-22T09:29:24.591Z,18
2023-02-22T09:57:49.676Z,24
2023-02-22T10:26:36.364Z,23
2023-02-22T10:55:15.180Z,19
2023-02-22T11:23:28.118Z,25
2023-02-22T11:52:04.315Z,26
2023-02-22T12:20:47.700Z,25
2023-02-22T12:49:24.318Z,28
2023-02-22T13:17:56.078Z,31
2023-02-22T17:02:11.170Z,32
2023-02-22T17:30:15.352Z,32
2023-02-22T17:58:47.313Z,31
2023-02-22T18:27:12.765Z,31
2023-02-22T18:56:04.116Z,31
2023-02-22T19:25:25.021Z,30
2023-02-22T19:53:49.785Z,31
2023-02-22T20:22:24.411Z,30
2023-02-22T20:50:46.322Z,28
2023-02-22T21:20:10.679Z,30
2023-02-22T21:48:28.994Z,30
2023-02-22T22:17:46.255Z,26
2023-02-22T22:46:07.364Z,24
2023-02-22T23:14:36.194Z,20
2023-02-22T23:43:34.855Z,20
